createdAt,value
2022-09-06T00:02:23.492Z,100472.72
2022-09-06T00:07:25.144Z,100477.63
2022-09-06T00:12:26.560Z,100464.06
2022-09-06T00:17:27.977Z,100464.28
2022-09-06T00:22:29.406Z,100464.81
2022-09-06T00:27:30.965Z,100466.09
2022-09-06T00:32:32.485Z,100465.13
2022-09-06T00:37:33.923Z,100459.78
2022-09-06T00:42:35.356Z,100460.75
2022-09-06T00:47:36.876Z,100459.91
2022-09-06T00:52:38.292Z,100450.50
2022-09-06T00:57:39.722Z,100452.56
2022-09-06T01:02:41.439Z,100452.16
2022-09-06T01:08:06.121Z,100457.69
2022-09-06T01:13:31.452Z,100457.81
2022-09-06T01:18:38.790Z,100448.19
2022-09-06T01:23:59.013Z,100439.00
2022-09-06T01:29:00.441Z,100447.41
2022-09-06T01:34:07.960Z,100452.31
2022-09-06T01:39:14.351Z,100445.50
2022-09-06T01:44:15.785Z,100446.13
2022-09-06T01:49:29.188Z,100429.53
2022-09-06T01:54:50.500Z,100449.09
2022-09-06T02:00:11.054Z,100449.81
2022-09-06T02:05:39.972Z,100456.63
2022-09-06T02:10:45.288Z,100461.00
2022-09-06T02:15:50.793Z,100449.56
2022-09-06T02:20:54.028Z,100451.19
2022-09-06T02:26:05.484Z,100452.88
2022-09-06T02:31:37.843Z,100454.56
2022-09-06T02:36:39.337Z,100463.06
2022-09-06T02:41:41.225Z,100454.59
2022-09-06T02:46:42.775Z,100451.25
2022-09-06T02:51:44.177Z,100454.47
2022-09-06T02:56:48.000Z,100451.94
2022-09-06T03:01:53.101Z,100444.22
2022-09-06T03:06:54.856Z,100443.50
2022-09-06T03:11:56.284Z,100446.16
2022-09-06T03:16:57.832Z,100440.19
2022-09-06T03:21:59.304Z,100441.25
2022-09-06T03:27:00.757Z,100429.53
2022-09-06T03:32:02.446Z,100428.88
2022-09-06T03:37:03.929Z,100426.38
2022-09-06T03:42:05.425Z,100437.00
2022-09-06T03:47:06.988Z,100427.00
2022-09-06T03:52:08.412Z,100432.09
2022-09-06T03:57:09.889Z,100434.84
2022-09-06T04:02:11.460Z,100425.31
2022-09-06T04:07:13.053Z,100427.94
2022-09-06T04:12:14.494Z,100421.28
2022-09-06T04:17:16.002Z,100430.69
2022-09-06T04:22:17.438Z,100420.44
2022-09-06T04:27:19.004Z,100413.53
2022-09-06T04:32:20.404Z,100410.81
2022-09-06T04:37:21.839Z,100406.06
2022-09-06T04:42:23.397Z,100393.06
2022-09-06T04:47:24.793Z,100386.16
2022-09-06T04:52:30.106Z,100381.22
2022-09-06T04:57:31.727Z,100395.56
2022-09-06T05:02:33.187Z,100398.03
2022-09-06T05:07:34.761Z,100388.53
2022-09-06T05:12:38.809Z,100394.72
2022-09-06T05:17:42.332Z,100400.28
2022-09-06T05:22:43.821Z,100398.66
2022-09-06T05:27:45.244Z,100388.84
2022-09-06T05:32:46.664Z,100388.94
2022-09-06T05:37:48.173Z,100390.31
2022-09-06T05:42:49.653Z,100398.41
2022-09-06T05:47:51.081Z,100396.09
2022-09-06T05:52:53.712Z,100398.66
2022-09-06T05:57:55.149Z,100395.25
2022-09-06T06:02:56.601Z,100396.34
2022-09-06T06:07:59.464Z,100388.50
2022-09-06T06:13:00.905Z,100387.47
2022-09-06T06:18:02.309Z,100385.13
2022-09-06T06:23:03.712Z,100386.09
2022-09-06T06:28:05.192Z,100378.66
2022-09-06T06:33:06.621Z,100371.53
2022-09-06T06:38:08.084Z,100372.69
2022-09-06T06:43:11.349Z,100380.94
2022-09-06T06:48:12.769Z,100386.91
2022-09-06T06:53:14.209Z,100390.28
2022-09-06T06:58:16.732Z,100385.56
2022-09-06T07:03:18.324Z,100381.00
2022-09-06T07:08:19.780Z,100387.81
2022-09-06T07:13:21.380Z,100378.63
2022-09-06T07:18:22.868Z,100390.06
2022-09-06T07:28:46.853Z,100391.25
2022-09-06T07:33:50.561Z,100389.97
2022-09-06T07:38:54.215Z,100388.72
2022-09-06T07:43:55.800Z,100387.00
2022-09-06T07:48:57.256Z,100389.63
2022-09-06T07:54:19.302Z,100399.97
2022-09-06T07:59:20.196Z,100393.44
2022-09-06T08:04:21.685Z,100395.03
2022-09-06T08:09:23.104Z,100399.56
2022-09-06T08:14:24.553Z,100396.88
2022-09-06T08:19:25.977Z,100399.75
2022-09-06T08:24:27.454Z,100404.94
2022-09-06T08:29:28.977Z,100410.44
2022-09-06T08:34:30.428Z,100407.00
2022-09-06T08:39:31.981Z,100390.06
2022-09-06T08:44:57.554Z,100379.94
2022-09-06T08:50:08.777Z,100375.84
2022-09-06T08:55:28.426Z,100372.75
2022-09-06T09:00:29.869Z,100366.03
2022-09-06T09:05:33.200Z,100368.63
2022-09-06T09:10:42.272Z,100362.22
2022-09-06T09:15:43.712Z,100359.09
2022-09-06T09:20:45.193Z,100351.22
2022-09-06T09:25:46.663Z,100347.06
2022-09-06T09:30:52.940Z,100342.84
2022-09-06T09:35:55.389Z,100349.31
2022-09-06T09:41:06.552Z,100331.34
2022-09-06T09:46:15.574Z,100325.84
2022-09-06T09:51:26.254Z,100316.03
2022-09-06T09:56:29.884Z,100305.72
2022-09-06T10:01:31.736Z,100304.88
2022-09-06T10:11:56.592Z,100307.66
2022-09-06T10:16:58.684Z,100301.03
2022-09-06T10:22:03.849Z,100291.00
2022-09-06T10:27:06.720Z,100280.75
2022-09-06T10:32:39.141Z,100280.94
2022-09-06T10:37:42.577Z,100281.56
2022-09-06T10:42:52.596Z,100283.19
2022-09-06T10:48:35.485Z,100278.03
2022-09-06T10:53:52.009Z,100276.13
2022-09-06T11:10:15.269Z,100256.81
2022-09-06T11:15:16.983Z,100244.22
2022-09-06T11:20:31.820Z,100244.78
2022-09-06T11:25:46.404Z,100244.34
2022-09-06T11:30:48.264Z,100244.28
2022-09-06T11:35:49.814Z,100255.31
2022-09-06T11:41:01.236Z,100247.72
2022-09-06T11:46:02.698Z,100240.09
2022-09-06T11:51:10.614Z,100232.38
2022-09-06T11:56:17.423Z,100224.97
2022-09-06T12:01:20.606Z,100211.41
2022-09-06T12:06:26.943Z,100206.00
2022-09-06T12:11:42.340Z,100198.78
2022-09-06T12:16:56.056Z,100194.88
2022-09-06T12:21:57.509Z,100189.06
2022-09-06T12:27:18.773Z,100195.16
2022-09-06T12:32:22.433Z,100200.16
2022-09-06T12:37:37.216Z,100180.69
2022-09-06T12:42:38.701Z,100176.03
2022-09-06T12:47:40.216Z,100173.00
2022-09-06T12:52:52.420Z,100189.56
2022-09-06T12:57:55.605Z,100189.75
2022-09-06T13:03:00.010Z,100179.00
2022-09-06T13:08:02.407Z,100186.25
2022-09-06T13:13:05.024Z,100180.69
2022-09-06T13:18:35.428Z,100185.00
2022-09-06T13:23:44.586Z,100193.09
2022-09-06T13:28:46.133Z,100219.59
2022-09-06T13:33:57.290Z,100274.03
2022-09-06T13:38:59.973Z,100281.59
2022-09-06T13:44:07.702Z,100290.41
2022-09-06T13:49:09.138Z,100302.38
2022-09-06T13:54:12.145Z,100307.53
2022-09-06T13:59:13.588Z,100319.41
2022-09-06T14:04:16.161Z,100332.47
2022-09-06T14:09:17.640Z,100321.16
2022-09-06T14:14:19.364Z,100293.66
2022-09-06T14:19:20.820Z,100285.16
2022-09-06T14:24:22.320Z,100294.81
2022-09-06T14:29:23.773Z,100291.16
2022-09-06T14:34:25.676Z,100273.56
2022-09-06T14:39:27.508Z,100279.56
2022-09-06T14:44:29.004Z,100261.16
2022-09-06T14:49:30.417Z,100251.28
2022-09-06T14:54:31.896Z,100247.22
2022-09-06T14:59:33.332Z,100238.16
2022-09-06T15:04:34.805Z,100223.28
2022-09-06T15:09:36.902Z,100213.47
2022-09-06T15:14:38.388Z,100212.19
2022-09-06T15:19:39.800Z,100219.78
2022-09-06T15:24:41.201Z,100217.22
2022-09-06T15:29:42.606Z,100202.44
2022-09-06T15:34:44.015Z,100192.59
2022-09-06T15:39:45.457Z,100179.16
2022-09-06T15:44:46.881Z,100178.00
2022-09-06T15:49:48.287Z,100172.84
2022-09-06T15:55:08.300Z,100175.25
2022-09-06T16:00:11.617Z,100176.34
2022-09-06T16:05:13.026Z,100185.31
2022-09-06T16:10:15.213Z,100195.78
2022-09-06T16:15:16.640Z,100192.16
2022-09-06T16:20:18.040Z,100194.38
2022-09-06T16:25:19.446Z,100186.16
2022-09-06T16:30:20.896Z,100185.09
2022-09-06T16:35:22.298Z,100191.97
2022-09-06T16:40:23.697Z,100185.31
2022-09-06T16:45:25.100Z,100157.66
2022-09-06T16:50:26.605Z,100172.94
2022-09-06T16:55:28.020Z,100172.13
2022-09-06T17:00:29.572Z,100162.56
2022-09-06T17:05:34.357Z,100166.91
2022-09-06T17:10:38.442Z,100169.13
2022-09-06T17:15:58.177Z,100169.97
2022-09-06T17:21:04.979Z,100163.66
2022-09-06T17:26:06.524Z,100161.16
2022-09-06T17:31:09.008Z,100155.03
2022-09-06T17:36:21.957Z,100161.66
2022-09-06T17:41:24.690Z,100175.88
2022-09-06T17:46:28.904Z,100166.84
2022-09-06T17:51:30.949Z,100170.66
2022-09-06T17:56:32.777Z,100182.47
2022-09-06T18:01:36.272Z,100180.47
2022-09-06T18:06:40.129Z,100188.94
2022-09-06T18:11:41.534Z,100190.09
2022-09-06T18:16:45.085Z,100193.31
2022-09-06T18:21:46.670Z,100191.34
2022-09-06T18:26:48.992Z,100188.63
2022-09-06T18:31:53.342Z,100192.25
2022-09-06T18:36:55.012Z,100185.69
2022-09-06T18:42:03.784Z,100171.66
2022-09-06T18:47:06.604Z,100172.66
2022-09-06T18:52:08.038Z,100163.63
2022-09-06T18:57:09.472Z,100163.72
2022-09-06T19:02:11.115Z,100162.94
2022-09-06T19:07:12.580Z,100176.38
2022-09-06T19:12:14.453Z,100175.03
2022-09-06T19:17:15.852Z,100170.06
2022-09-06T19:22:17.505Z,100169.09
2022-09-06T19:27:18.905Z,100171.25
2022-09-06T19:32:22.145Z,100180.53
2022-09-06T19:37:24.458Z,100183.53
2022-09-06T19:42:25.896Z,100181.53
2022-09-06T19:47:27.301Z,100178.88
2022-09-06T19:52:28.774Z,100162.84
2022-09-06T19:57:30.802Z,100150.59
2022-09-06T20:02:32.223Z,100148.56
2022-09-06T20:07:33.673Z,100147.06
2022-09-06T20:12:35.927Z,100150.09
2022-09-06T20:17:38.044Z,100143.75
2022-09-06T20:22:39.489Z,100138.44
2022-09-06T20:27:44.367Z,100137.75
2022-09-06T20:32:46.098Z,100132.53
2022-09-06T20:37:47.581Z,100134.53
2022-09-06T20:42:48.988Z,100130.88
2022-09-06T20:47:50.505Z,100119.91
2022-09-06T20:52:53.001Z,100118.19
2022-09-06T20:57:55.025Z,100117.91
2022-09-06T21:02:57.069Z,100111.44
2022-09-06T21:07:58.497Z,100097.16
2022-09-06T21:13:00.272Z,100086.88
2022-09-06T21:18:02.189Z,100086.63
2022-09-06T21:23:03.653Z,100086.22
2022-09-06T21:28:05.061Z,100076.38
2022-09-06T21:33:06.469Z,100074.56
2022-09-06T21:38:08.420Z,100069.63
2022-09-06T21:43:09.821Z,100070.00
2022-09-06T21:48:12.325Z,100069.69
2022-09-06T21:53:13.973Z,100072.41
2022-09-06T21:58:16.253Z,100074.88
2022-09-06T22:03:17.809Z,100056.47
2022-09-06T22:08:19.412Z,100045.75
2022-09-06T22:13:20.819Z,100040.81
2022-09-06T22:18:22.220Z,100048.47
2022-09-06T22:23:23.632Z,100045.47
2022-09-06T22:28:25.035Z,100043.19
2022-09-06T22:33:26.469Z,100055.88
2022-09-06T22:38:28.427Z,100043.88
2022-09-06T22:43:29.840Z,100050.63
2022-09-06T22:48:32.289Z,100048.47
2022-09-06T22:53:33.781Z,100056.88
2022-09-06T22:58:35.431Z,100060.19
2022-09-06T23:03:37.027Z,100059.56
2022-09-06T23:08:39.257Z,100055.59
2022-09-06T23:13:43.671Z,100038.25
2022-09-06T23:18:45.869Z,100037.34
2022-09-06T23:23:47.896Z,100049.88
2022-09-06T23:28:51.543Z,100034.66
2022-09-06T23:33:53.740Z,100037.00
2022-09-06T23:38:55.874Z,100021.91
2022-09-06T23:43:57.347Z,100023.09
2022-09-06T23:48:58.751Z,100022.72
2022-09-06T23:54:00.713Z,100020.81
2022-09-06T23:59:02.116Z,100014.06
